Terminal Aerodrome Forecast
Issued by NWS

Home | Current Version | Previous Version | Text Only | Print | Product List | Glossary On
Versions: 1 2 3 4 5 6 7 8 9 10 11 12 13
000
FTUS46 KMTR 291354 AAA
TAFSTS
TAF AMD
KSTS 291354Z 2914/3012 14004KT 6SM BR OVC015
      TEMPO 2914/2916 -RA OVC005
     FM291700 24005KT P6SM SCT015 BKN025
     FM291900 26010KT P6SM SCT040 BKN250
     FM292300 26013G20KT P6SM SCT250
     FM300300 26010KT P6SM SKC
     FM300800 26005KT P6SM SKC=

USA.gov is the U.S. government's official web portal to all federal, state and local government web resources and services.